Terminal Aerodrome Forecast
Issued by NWS Omaha/Valley, NE

Home | Current Version | Previous Version | Graphics & Text | Print | Product List | Glossary On
Versions: 1 2 3 4 5 6 7 8 9 10 11 12 13 14 15 16 17 18 19 20 21 22 23 24 25 26 27 28 29 30 31 32 33 34 35
000
FTUS43 KOAX 040903 AAA
TAFOFK
TAF AMD
KOFK 040903Z 0409/0506 VRB03KT P6SM VCTS BKN070CB
      TEMPO 0409/0411 VRB10G20KT 6SM -TSRA BKN040CB
     FM041200 15009KT P6SM BKN150
     FM050100 14007KT P6SM OVC250=

USA.gov is the U.S. government's official web portal to all federal, state and local government web resources and services.